Time,TemperatureF,DewpointF,PressureIn,WindDirection,WindDirectionDegrees,WindSpeedMPH,WindSpeedGustMPH,Humidity,HourlyPrecipIn,Conditions,Clouds,dailyrainin,SoftwareType,DateUTC
2013-07-09 00:00:00,74.0,72.2,30.06,SW,225,0.0,1.0,94,0.00,,,-99.99,Weather View 32 v60,2013-07-09 05:00:00,
2013-07-09 00:30:00,74.0,72.5,30.07,SSW,202,0.0,1.0,95,0.00,,,-99.99,Weather View 32 v60,2013-07-09 05:30:00,
2013-07-09 01:00:00,73.0,71.8,30.06,SSW,202,0.0,5.0,96,0.00,,,-99.99,Weather View 32 v60,2013-07-09 06:00:00,
2013-07-09 01:30:00,73.0,72.1,30.05,WSW,248,0.0,5.0,97,0.00,,,-99.99,Weather View 32 v60,2013-07-09 06:30:00,
2013-07-09 02:00:00,73.0,72.4,30.05,SW,225,0.0,1.0,98,0.00,,,-99.99,Weather View 32 v60,2013-07-09 07:00:00,
2013-07-09 02:30:00,72.0,71.4,30.05,SE,135,0.0,0.0,98,0.00,,,-99.99,Weather View 32 v60,2013-07-09 07:30:00,
2013-07-09 03:00:00,71.0,70.7,30.05,SSW,202,0.0,0.0,99,0.00,,,-99.99,Weather View 32 v60,2013-07-09 08:00:00,
2013-07-09 03:30:00,71.0,70.7,30.04,South,180,0.0,0.0,99,0.00,,,-99.99,Weather View 32 v60,2013-07-09 08:30:00,
2013-07-09 04:00:00,71.0,70.7,30.03,WSW,248,0.0,0.0,99,0.00,,,-99.99,Weather View 32 v60,2013-07-09 09:00:00,
2013-07-09 04:30:00,71.0,71.0,30.05,SW,225,0.0,0.0,100,0.00,,,-99.99,Weather View 32 v60,2013-07-09 09:30:00,
2013-07-09 05:00:00,71.0,71.0,30.05,SSE,158,0.0,0.0,100,0.00,,,-99.99,Weather View 32 v60,2013-07-09 10:00:00,
2013-07-09 05:30:00,71.0,71.0,30.08,SW,225,0.0,0.0,100,0.00,,,-99.99,Weather View 32 v60,2013-07-09 10:30:00,
2013-07-09 06:00:00,71.0,71.0,30.10,WSW,248,0.0,1.0,100,0.00,,,-99.99,Weather View 32 v60,2013-07-09 11:00:00,
2013-07-09 06:30:00,72.0,72.0,30.11,West,270,0.0,1.0,100,0.00,,,-99.99,Weather View 32 v60,2013-07-09 11:30:00,
2013-07-09 07:30:00,73.0,72.1,30.09,SW,225,0.0,3.0,97,0.00,,,-99.99,Weather View 32 v60,2013-07-09 12:30:00,
2013-07-09 08:00:00,75.0,72.8,30.08,SSW,202,0.0,3.0,93,0.00,,,-99.99,Weather View 32 v60,2013-07-09 13:00:00,
2013-07-09 08:30:00,77.0,74.2,30.06,South,180,0.0,3.0,91,0.00,,,-99.99,Weather View 32 v60,2013-07-09 13:30:00,
2013-07-09 09:00:00,78.0,74.8,30.07,WSW,248,0.0,7.0,90,0.00,,,-99.99,Weather View 32 v60,2013-07-09 14:00:00,
2013-07-09 09:30:00,78.0,74.5,30.06,SW,225,0.0,7.0,89,0.00,,,-99.99,Weather View 32 v60,2013-07-09 14:30:00,
2013-07-09 10:00:00,78.0,74.8,30.04,West,270,0.0,3.0,90,0.00,,,-99.99,Weather View 32 v60,2013-07-09 15:00:00,
2013-07-09 10:30:00,75.0,72.5,30.06,NNE,22,0.0,5.0,92,0.00,,,-99.99,Weather View 32 v60,2013-07-09 15:30:00,
2013-07-09 11:00:00,72.0,71.4,30.04,West,270,0.0,18.0,98,0.00,,,-99.99,Weather View 32 v60,2013-07-09 16:00:00,
2013-07-09 11:30:00,72.0,71.4,30.02,WSW,248,0.0,18.0,98,0.00,,,-99.99,Weather View 32 v60,2013-07-09 16:30:00,
2013-07-09 12:00:00,73.0,72.7,30.02,SSW,202,0.0,1.0,99,0.00,,,-99.99,Weather View 32 v60,2013-07-09 17:00:00,
2013-07-09 12:30:00,74.0,73.7,30.00,SSW,202,0.0,3.0,99,0.00,,,-99.99,Weather View 32 v60,2013-07-09 17:30:00,
2013-07-09 13:00:00,74.0,73.4,29.99,South,180,0.0,3.0,98,0.00,,,-99.99,Weather View 32 v60,2013-07-09 18:00:00,
2013-07-09 13:30:00,74.0,73.7,29.98,SW,225,0.0,1.0,99,0.00,,,-99.99,Weather View 32 v60,2013-07-09 18:30:00,
2013-07-09 14:00:00,75.0,74.1,29.97,SW,225,0.0,7.0,97,0.00,,,-99.99,Weather View 32 v60,2013-07-09 19:00:00,
2013-07-09 14:30:00,76.0,74.5,29.96,West,270,5.0,8.0,95,0.00,,,-99.99,Weather View 32 v60,2013-07-09 19:30:00,
2013-07-09 15:00:00,79.0,74.4,29.98,West,270,0.0,8.0,86,0.00,,,-99.99,Weather View 32 v60,2013-07-09 20:00:00,
2013-07-09 15:30:00,80.0,75.1,29.99,WNW,292,1.0,6.0,85,0.00,,,-99.99,Weather View 32 v60,2013-07-09 20:30:00,
2013-07-09 16:00:00,82.0,76.3,29.99,WNW,292,0.0,4.0,83,0.00,,,-99.99,Weather View 32 v60,2013-07-09 21:00:00,
2013-07-09 16:30:00,83.0,76.2,29.98,West,270,0.0,6.0,80,0.00,,,-99.99,Weather View 32 v60,2013-07-09 21:30:00,
2013-07-09 17:00:00,84.0,74.8,29.96,WNW,292,0.0,8.0,74,0.00,,,-99.99,Weather View 32 v60,2013-07-09 22:00:00,
2013-07-09 17:30:00,84.0,74.0,29.95,West,270,0.0,8.0,72,0.00,,,-99.99,Weather View 32 v60,2013-07-09 22:30:00,
2013-07-09 18:00:00,84.0,75.2,29.95,WSW,248,0.0,8.0,75,0.00,,,-99.99,Weather View 32 v60,2013-07-09 23:00:00,
2013-07-09 18:30:00,83.0,74.6,29.95,West,270,0.0,8.0,76,0.00,,,-99.99,Weather View 32 v60,2013-07-09 23:30:00,
2013-07-09 19:30:00,82.0,75.2,29.96,NNW,338,0.0,11.0,80,0.00,,,-99.99,Weather View 32 v60,2013-07-10 00:30:00,
2013-07-09 20:00:00,81.0,75.7,29.96,WNW,292,0.0,10.0,84,0.00,,,-99.99,Weather View 32 v60,2013-07-10 01:00:00,
2013-07-09 20:30:00,80.0,75.4,29.97,West,270,0.0,6.0,86,0.00,,,-99.99,Weather View 32 v60,2013-07-10 01:30:00,
2013-07-09 21:00:00,80.0,75.8,29.98,SW,225,0.0,2.0,87,0.00,,,-99.99,Weather View 32 v60,2013-07-10 02:00:00,
2013-07-09 21:30:00,78.0,73.8,29.98,North,0,0.0,2.0,87,0.00,,,-99.99,Weather View 32 v60,2013-07-10 02:30:00,
2013-07-09 22:30:00,76.0,71.1,29.98,WNW,292,0.0,2.0,85,0.00,,,-99.99,Weather View 32 v60,2013-07-10 03:30:00,
2013-07-09 23:00:00,76.0,71.5,29.98,NW,315,0.0,3.0,86,0.00,,,-99.99,Weather View 32 v60,2013-07-10 04:00:00,
2013-07-09 23:30:00,76.0,71.1,29.97,NNE,22,0.0,3.0,85,0.00,,,-99.99,Weather View 32 v60,2013-07-10 04:30:00,